sensor_id;sensor_type;location;lat;lon;timestamp;temperature;humidity
39079;DHT22;24829;49.208;12.080;2022-12-15T00:00:07;-2.30;99.90
39079;DHT22;24829;49.208;12.080;2022-12-15T00:02:51;-2.30;99.90
39079;DHT22;24829;49.208;12.080;2022-12-15T00:05:35;-2.40;99.90
39079;DHT22;24829;49.208;12.080;2022-12-15T00:08:19;-2.40;99.90
39079;DHT22;24829;49.208;12.080;2022-12-15T00:11:03;-2.40;99.90
39079;DHT22;24829;49.208;12.080;2022-12-15T00:13:47;-2.40;99.90
39079;DHT22;24829;49.208;12.080;2022-12-15T00:16:31;-2.40;99.90
39079;DHT22;24829;49.208;12.080;2022-12-15T00:19:15;-2.40;99.90
39079;DHT22;24829;49.208;12.080;2022-12-15T00:21:59;-2.50;99.90
39079;DHT22;24829;49.208;12.080;2022-12-15T00:24:43;-2.60;99.90
39079;DHT22;24829;49.208;12.080;2022-12-15T00:27:27;-2.60;99.90
39079;DHT22;24829;49.208;12.080;2022-12-15T00:30:12;-2.60;99.90
39079;DHT22;24829;49.208;12.080;2022-12-15T00:32:56;-2.50;99.90
39079;DHT22;24829;49.208;12.080;2022-12-15T00:35:40;-2.50;99.90
39079;DHT22;24829;49.208;12.080;2022-12-15T00:38:24;-2.50;99.90
39079;DHT22;24829;49.208;12.080;2022-12-15T00:41:13;-2.50;99.90
39079;DHT22;24829;49.208;12.080;2022-12-15T00:43:40;-2.50;99.90
39079;DHT22;24829;49.208;12.080;2022-12-15T00:46:06;-2.50;99.90
39079;DHT22;24829;49.208;12.080;2022-12-15T00:48:50;-2.60;99.90
39079;DHT22;24829;49.208;12.080;2022-12-15T00:51:16;-2.50;99.90
39079;DHT22;24829;49.208;12.080;2022-12-15T00:53:42;-2.60;99.90
39079;DHT22;24829;49.208;12.080;2022-12-15T00:56:27;-2.60;99.90
39079;DHT22;24829;49.208;12.080;2022-12-15T00:59:12;-2.60;99.90
39079;DHT22;24829;49.208;12.080;2022-12-15T01:01:56;-2.60;99.90
39079;DHT22;24829;49.208;12.080;2022-12-15T01:04:40;-2.60;99.90
39079;DHT22;24829;49.208;12.080;2022-12-15T01:07:24;-2.60;99.90
39079;DHT22;24829;49.208;12.080;2022-12-15T01:10:09;-2.60;99.90
39079;DHT22;24829;49.208;12.080;2022-12-15T01:12:53;-2.60;99.90
39079;DHT22;24829;49.208;12.080;2022-12-15T01:15:37;-2.50;99.90
39079;DHT22;24829;49.208;12.080;2022-12-15T01:18:22;-2.60;99.90
39079;DHT22;24829;49.208;12.080;2022-12-15T01:21:07;-2.70;99.90
39079;DHT22;24829;49.208;12.080;2022-12-15T01:23:35;-2.90;99.90
39079;DHT22;24829;49.208;12.080;2022-12-15T01:26:01;-2.90;99.90
39079;DHT22;24829;49.208;12.080;2022-12-15T01:28:27;-3.10;99.90
39079;DHT22;24829;49.208;12.080;2022-12-15T01:30:53;-3.10;99.90
39079;DHT22;24829;49.208;12.080;2022-12-15T01:33:18;-3.20;99.90
39079;DHT22;24829;49.208;12.080;2022-12-15T01:35:44;-3.20;99.90
39079;DHT22;24829;49.208;12.080;2022-12-15T01:38:10;-3.10;99.90
39079;DHT22;24829;49.208;12.080;2022-12-15T01:40:36;-3.00;99.90
39079;DHT22;24829;49.208;12.080;2022-12-15T01:43:23;-2.90;99.90
39079;DHT22;24829;49.208;12.080;2022-12-15T01:48:46;-2.80;99.90
39079;DHT22;24829;49.208;12.080;2022-12-15T01:56:20;-2.70;99.90
39079;DHT22;24829;49.208;12.080;2022-12-15T01:58:49;-2.70;99.90
39079;DHT22;24829;49.208;12.080;2022-12-15T02:01:15;-2.70;99.90
39079;DHT22;24829;49.208;12.080;2022-12-15T02:03:42;-2.70;99.90
39079;DHT22;24829;49.208;12.080;2022-12-15T02:06:09;-2.70;99.90
39079;DHT22;24829;49.208;12.080;2022-12-15T02:08:36;-2.70;99.90
39079;DHT22;24829;49.208;12.080;2022-12-15T02:11:28;-2.80;99.90
39079;DHT22;24829;49.208;12.080;2022-12-15T02:14:02;-2.80;99.90
39079;DHT22;24829;49.208;12.080;2022-12-15T02:17:13;-2.80;99.90
39079;DHT22;24829;49.208;12.080;2022-12-15T02:22:33;-2.80;99.90
39079;DHT22;24829;49.208;12.080;2022-12-15T02:28:08;-2.80;99.90
39079;DHT22;24829;49.208;12.080;2022-12-15T02:30:47;-2.80;99.90
39079;DHT22;24829;49.208;12.080;2022-12-15T02:33:44;-2.80;99.90
39079;DHT22;24829;49.208;12.080;2022-12-15T02:36:50;-2.80;99.90
39079;DHT22;24829;49.208;12.080;2022-12-15T02:39:11;-2.90;99.90
39079;DHT22;24829;49.208;12.080;2022-12-15T02:41:42;-2.90;99.90
39079;DHT22;24829;49.208;12.080;2022-12-15T02:44:19;-2.90;99.90
39079;DHT22;24829;49.208;12.080;2022-12-15T02:56:14;-2.80;99.90
39079;DHT22;24829;49.208;12.080;2022-12-15T03:01:36;-2.70;99.90
39079;DHT22;24829;49.208;12.080;2022-12-15T03:04:04;-2.70;99.90
39079;DHT22;24829;49.208;12.080;2022-12-15T03:06:31;-2.80;99.90
39079;DHT22;24829;49.208;12.080;2022-12-15T03:08:57;-2.80;99.90
39079;DHT22;24829;49.208;12.080;2022-12-15T03:11:22;-2.80;99.90
39079;DHT22;24829;49.208;12.080;2022-12-15T03:13:48;-2.90;99.90
39079;DHT22;24829;49.208;12.080;2022-12-15T03:16:14;-3.00;99.90
39079;DHT22;24829;49.208;12.080;2022-12-15T03:18:40;-3.00;99.90
39079;DHT22;24829;49.208;12.080;2022-12-15T03:21:05;-3.10;99.90
39079;DHT22;24829;49.208;12.080;2022-12-15T03:23:31;-3.10;99.90
39079;DHT22;24829;49.208;12.080;2022-12-15T03:25:58;-3.10;99.90
39079;DHT22;24829;49.208;12.080;2022-12-15T03:28:23;-3.00;99.90
39079;DHT22;24829;49.208;12.080;2022-12-15T03:30:49;-3.00;99.90
39079;DHT22;24829;49.208;12.080;2022-12-15T03:33:15;-3.00;99.90
39079;DHT22;24829;49.208;12.080;2022-12-15T03:35:41;-3.00;99.90
39079;DHT22;24829;49.208;12.080;2022-12-15T03:38:06;-3.00;99.90
39079;DHT22;24829;49.208;12.080;2022-12-15T03:40:32;-2.90;99.90
39079;DHT22;24829;49.208;12.080;2022-12-15T03:42:58;-2.90;99.90
39079;DHT22;24829;49.208;12.080;2022-12-15T03:45:25;-2.90;99.90
39079;DHT22;24829;49.208;12.080;2022-12-15T03:47:52;-2.80;99.90
39079;DHT22;24829;49.208;12.080;2022-12-15T03:50:21;-2.90;99.90
39079;DHT22;24829;49.208;12.080;2022-12-15T03:52:52;-2.90;99.90
39079;DHT22;24829;49.208;12.080;2022-12-15T03:55:18;-2.90;99.90
39079;DHT22;24829;49.208;12.080;2022-12-15T03:57:44;-2.80;99.90
39079;DHT22;24829;49.208;12.080;2022-12-15T04:00:12;-2.80;99.90
39079;DHT22;24829;49.208;12.080;2022-12-15T04:02:41;-2.80;99.90
39079;DHT22;24829;49.208;12.080;2022-12-15T04:05:08;-2.80;99.90
39079;DHT22;24829;49.208;12.080;2022-12-15T04:07:36;-2.90;99.90
39079;DHT22;24829;49.208;12.080;2022-12-15T04:10:02;-2.80;99.90
39079;DHT22;24829;49.208;12.080;2022-12-15T04:12:27;-2.80;99.90
39079;DHT22;24829;49.208;12.080;2022-12-15T04:14:53;-2.80;99.90
39079;DHT22;24829;49.208;12.080;2022-12-15T04:17:19;-2.80;99.90
39079;DHT22;24829;49.208;12.080;2022-12-15T04:19:44;-2.80;99.90
39079;DHT22;24829;49.208;12.080;2022-12-15T04:22:28;-2.80;99.90
39079;DHT22;24829;49.208;12.080;2022-12-15T04:24:54;-2.90;99.90
39079;DHT22;24829;49.208;12.080;2022-12-15T04:27:38;-2.90;99.90
39079;DHT22;24829;49.208;12.080;2022-12-15T04:30:22;-2.90;99.90
39079;DHT22;24829;49.208;12.080;2022-12-15T04:33:06;-2.90;99.90
39079;DHT22;24829;49.208;12.080;2022-12-15T04:35:51;-2.90;99.90
39079;DHT22;24829;49.208;12.080;2022-12-15T04:38:35;-2.90;99.90
39079;DHT22;24829;49.208;12.080;2022-12-15T04:41:21;-2.90;99.90
39079;DHT22;24829;49.208;12.080;2022-12-15T04:44:05;-2.90;99.90
39079;DHT22;24829;49.208;12.080;2022-12-15T04:46:50;-2.90;99.90
39079;DHT22;24829;49.208;12.080;2022-12-15T04:49:34;-2.90;99.90
39079;DHT22;24829;49.208;12.080;2022-12-15T04:52:18;-2.90;99.90
39079;DHT22;24829;49.208;12.080;2022-12-15T04:55:02;-2.80;99.90
39079;DHT22;24829;49.208;12.080;2022-12-15T04:57:46;-3.00;99.90
39079;DHT22;24829;49.208;12.080;2022-12-15T05:00:30;-3.10;99.90
39079;DHT22;24829;49.208;12.080;2022-12-15T05:03:14;-3.20;99.90
39079;DHT22;24829;49.208;12.080;2022-12-15T05:05:59;-3.30;99.90
39079;DHT22;24829;49.208;12.080;2022-12-15T05:08:43;-3.30;99.90
39079;DHT22;24829;49.208;12.080;2022-12-15T05:11:27;-3.40;99.90
39079;DHT22;24829;49.208;12.080;2022-12-15T05:14:11;-3.40;99.90
39079;DHT22;24829;49.208;12.080;2022-12-15T05:16:55;-3.50;99.90
39079;DHT22;24829;49.208;12.080;2022-12-15T05:19:39;-3.50;99.90
39079;DHT22;24829;49.208;12.080;2022-12-15T05:22:23;-3.60;99.90
39079;DHT22;24829;49.208;12.080;2022-12-15T05:25:07;-3.60;99.90
39079;DHT22;24829;49.208;12.080;2022-12-15T05:27:52;-3.60;99.90
39079;DHT22;24829;49.208;12.080;2022-12-15T05:30:36;-3.60;99.90
39079;DHT22;24829;49.208;12.080;2022-12-15T05:33:20;-3.60;99.90
39079;DHT22;24829;49.208;12.080;2022-12-15T05:35:45;-3.70;99.90
39079;DHT22;24829;49.208;12.080;2022-12-15T05:38:11;-3.70;99.90
39079;DHT22;24829;49.208;12.080;2022-12-15T05:40:37;-3.70;99.90
39079;DHT22;24829;49.208;12.080;2022-12-15T05:43:02;-3.80;99.90
39079;DHT22;24829;49.208;12.080;2022-12-15T05:45:28;-3.80;99.90
39079;DHT22;24829;49.208;12.080;2022-12-15T05:47:54;-3.90;99.90
39079;DHT22;24829;49.208;12.080;2022-12-15T05:50:20;-3.90;99.90
39079;DHT22;24829;49.208;12.080;2022-12-15T05:52:46;-3.80;99.90
39079;DHT22;24829;49.208;12.080;2022-12-15T05:55:11;-3.90;99.90
39079;DHT22;24829;49.208;12.080;2022-12-15T05:57:37;-3.90;99.90
39079;DHT22;24829;49.208;12.080;2022-12-15T06:00:04;-3.90;99.90
39079;DHT22;24829;49.208;12.080;2022-12-15T06:02:30;-3.80;99.90
39079;DHT22;24829;49.208;12.080;2022-12-15T06:04:56;-3.80;99.90
39079;DHT22;24829;49.208;12.080;2022-12-15T06:07:21;-3.80;99.90
39079;DHT22;24829;49.208;12.080;2022-12-15T06:09:47;-3.80;99.90
39079;DHT22;24829;49.208;12.080;2022-12-15T06:12:13;-3.70;99.90
39079;DHT22;24829;49.208;12.080;2022-12-15T06:14:38;-3.70;99.90
39079;DHT22;24829;49.208;12.080;2022-12-15T06:17:04;-3.70;99.90
39079;DHT22;24829;49.208;12.080;2022-12-15T06:19:29;-3.60;99.90
39079;DHT22;24829;49.208;12.080;2022-12-15T06:21:55;-3.60;99.90
39079;DHT22;24829;49.208;12.080;2022-12-15T06:24:21;-3.60;99.90
39079;DHT22;24829;49.208;12.080;2022-12-15T06:26:46;-3.50;99.90
39079;DHT22;24829;49.208;12.080;2022-12-15T06:29:12;-3.50;99.90
39079;DHT22;24829;49.208;12.080;2022-12-15T06:31:39;-3.50;99.90
39079;DHT22;24829;49.208;12.080;2022-12-15T06:34:11;-3.50;99.90
39079;DHT22;24829;49.208;12.080;2022-12-15T06:36:37;-3.50;99.90
39079;DHT22;24829;49.208;12.080;2022-12-15T06:39:05;-3.50;99.90
39079;DHT22;24829;49.208;12.080;2022-12-15T06:41:31;-3.50;99.90
39079;DHT22;24829;49.208;12.080;2022-12-15T06:43:57;-3.50;99.90
39079;DHT22;24829;49.208;12.080;2022-12-15T06:46:24;-3.50;99.90
39079;DHT22;24829;49.208;12.080;2022-12-15T06:48:50;-3.50;99.90
39079;DHT22;24829;49.208;12.080;2022-12-15T06:51:16;-3.50;99.90
39079;DHT22;24829;49.208;12.080;2022-12-15T06:53:42;-3.50;99.90
39079;DHT22;24829;49.208;12.080;2022-12-15T06:56:25;-3.50;99.90
39079;DHT22;24829;49.208;12.080;2022-12-15T06:58:52;-3.50;99.90
39079;DHT22;24829;49.208;12.080;2022-12-15T07:01:20;-3.50;99.90
39079;DHT22;24829;49.208;12.080;2022-12-15T07:03:45;-3.50;99.90
39079;DHT22;24829;49.208;12.080;2022-12-15T07:06:12;-3.50;99.90
39079;DHT22;24829;49.208;12.080;2022-12-15T07:08:38;-3.50;99.90
39079;DHT22;24829;49.208;12.080;2022-12-15T07:11:06;-3.50;99.90
39079;DHT22;24829;49.208;12.080;2022-12-15T07:13:32;-3.40;99.90
39079;DHT22;24829;49.208;12.080;2022-12-15T07:16:03;-3.50;99.90
39079;DHT22;24829;49.208;12.080;2022-12-15T07:18:29;-3.40;99.90
39079;DHT22;24829;49.208;12.080;2022-12-15T07:21:04;-3.40;99.90
39079;DHT22;24829;49.208;12.080;2022-12-15T07:23:30;-3.40;99.90
39079;DHT22;24829;49.208;12.080;2022-12-15T07:25:56;-3.30;99.90
39079;DHT22;24829;49.208;12.080;2022-12-15T07:28:21;-3.20;99.90
39079;DHT22;24829;49.208;12.080;2022-12-15T07:30:47;-3.20;99.90
39079;DHT22;24829;49.208;12.080;2022-12-15T07:33:12;-3.20;99.90
39079;DHT22;24829;49.208;12.080;2022-12-15T07:35:40;-3.10;99.90
39079;DHT22;24829;49.208;12.080;2022-12-15T07:38:06;-3.00;99.90
39079;DHT22;24829;49.208;12.080;2022-12-15T07:40:32;-3.00;99.90
39079;DHT22;24829;49.208;12.080;2022-12-15T07:42:58;-2.90;99.90
39079;DHT22;24829;49.208;12.080;2022-12-15T07:45:23;-2.90;99.90
39079;DHT22;24829;49.208;12.080;2022-12-15T07:47:49;-2.90;99.90
39079;DHT22;24829;49.208;12.080;2022-12-15T07:50:16;-2.80;99.90
39079;DHT22;24829;49.208;12.080;2022-12-15T07:52:41;-2.80;99.90
39079;DHT22;24829;49.208;12.080;2022-12-15T07:55:08;-2.70;99.90
39079;DHT22;24829;49.208;12.080;2022-12-15T07:57:33;-2.70;99.90
39079;DHT22;24829;49.208;12.080;2022-12-15T07:59:59;-2.50;99.90
39079;DHT22;24829;49.208;12.080;2022-12-15T08:02:24;-2.40;99.90
39079;DHT22;24829;49.208;12.080;2022-12-15T08:04:50;-2.30;99.90
39079;DHT22;24829;49.208;12.080;2022-12-15T08:07:15;-2.30;99.90
39079;DHT22;24829;49.208;12.080;2022-12-15T08:09:41;-2.30;99.90
39079;DHT22;24829;49.208;12.080;2022-12-15T08:12:07;-2.20;99.90
39079;DHT22;24829;49.208;12.080;2022-12-15T08:14:32;-2.20;99.90
39079;DHT22;24829;49.208;12.080;2022-12-15T08:16:58;-2.20;99.90
39079;DHT22;24829;49.208;12.080;2022-12-15T08:19:24;-2.10;99.90
39079;DHT22;24829;49.208;12.080;2022-12-15T08:21:49;-2.20;99.90
39079;DHT22;24829;49.208;12.080;2022-12-15T08:24:15;-2.10;99.90
39079;DHT22;24829;49.208;12.080;2022-12-15T08:26:42;-2.00;99.90
39079;DHT22;24829;49.208;12.080;2022-12-15T08:29:11;-2.00;99.90
39079;DHT22;24829;49.208;12.080;2022-12-15T08:31:37;-1.90;99.90
39079;DHT22;24829;49.208;12.080;2022-12-15T08:34:04;-1.90;99.90
39079;DHT22;24829;49.208;12.080;2022-12-15T08:36:30;-1.90;99.90
39079;DHT22;24829;49.208;12.080;2022-12-15T08:38:58;-1.80;99.90
39079;DHT22;24829;49.208;12.080;2022-12-15T08:41:27;-1.70;99.90
39079;DHT22;24829;49.208;12.080;2022-12-15T08:43:54;-1.70;99.90
39079;DHT22;24829;49.208;12.080;2022-12-15T08:46:23;-1.70;99.90
39079;DHT22;24829;49.208;12.080;2022-12-15T08:48:49;-1.60;99.90
39079;DHT22;24829;49.208;12.080;2022-12-15T08:51:15;-1.70;99.90
39079;DHT22;24829;49.208;12.080;2022-12-15T08:53:41;-1.70;99.90
39079;DHT22;24829;49.208;12.080;2022-12-15T08:56:12;-1.70;99.90
39079;DHT22;24829;49.208;12.080;2022-12-15T09:01:10;-1.60;99.90
39079;DHT22;24829;49.208;12.080;2022-12-15T09:03:37;-1.50;99.90
39079;DHT22;24829;49.208;12.080;2022-12-15T09:06:04;-1.50;99.90
39079;DHT22;24829;49.208;12.080;2022-12-15T09:08:30;-1.40;99.90
39079;DHT22;24829;49.208;12.080;2022-12-15T09:10:57;-1.40;99.90
39079;DHT22;24829;49.208;12.080;2022-12-15T09:13:23;-1.30;99.90
39079;DHT22;24829;49.208;12.080;2022-12-15T09:15:56;-1.30;99.90
39079;DHT22;24829;49.208;12.080;2022-12-15T09:18:22;-1.20;99.90
39079;DHT22;24829;49.208;12.080;2022-12-15T09:20:47;-1.10;99.90
39079;DHT22;24829;49.208;12.080;2022-12-15T09:23:13;-1.00;99.90
39079;DHT22;24829;49.208;12.080;2022-12-15T09:25:38;-1.00;99.90
39079;DHT22;24829;49.208;12.080;2022-12-15T09:28:04;-1.10;99.90
39079;DHT22;24829;49.208;12.080;2022-12-15T09:30:29;-1.10;99.90
39079;DHT22;24829;49.208;12.080;2022-12-15T09:32:55;-1.10;99.90
39079;DHT22;24829;49.208;12.080;2022-12-15T09:35:21;-1.20;99.90
39079;DHT22;24829;49.208;12.080;2022-12-15T09:37:46;-1.10;99.90
39079;DHT22;24829;49.208;12.080;2022-12-15T09:40:12;-1.00;99.90
39079;DHT22;24829;49.208;12.080;2022-12-15T09:42:38;-1.00;99.90
39079;DHT22;24829;49.208;12.080;2022-12-15T09:45:18;-1.00;99.90
39079;DHT22;24829;49.208;12.080;2022-12-15T09:47:59;-0.90;99.90
39079;DHT22;24829;49.208;12.080;2022-12-15T09:50:35;-0.90;99.90
39079;DHT22;24829;49.208;12.080;2022-12-15T09:53:02;-0.70;99.90
39079;DHT22;24829;49.208;12.080;2022-12-15T09:55:29;-0.60;99.90
39079;DHT22;24829;49.208;12.080;2022-12-15T09:57:59;-0.50;99.90
39079;DHT22;24829;49.208;12.080;2022-12-15T10:00:40;-0.40;99.90
39079;DHT22;24829;49.208;12.080;2022-12-15T10:06:23;-0.50;99.90
39079;DHT22;24829;49.208;12.080;2022-12-15T10:09:23;-0.60;99.90
39079;DHT22;24829;49.208;12.080;2022-12-15T10:12:00;-0.70;99.90
39079;DHT22;24829;49.208;12.080;2022-12-15T10:19:47;-0.80;99.90
39079;DHT22;24829;49.208;12.080;2022-12-15T10:22:25;-0.80;99.90
39079;DHT22;24829;49.208;12.080;2022-12-15T10:24:52;-0.90;99.90
39079;DHT22;24829;49.208;12.080;2022-12-15T10:30:03;-0.80;99.90
39079;DHT22;24829;49.208;12.080;2022-12-15T10:35:06;-0.80;99.90
39079;DHT22;24829;49.208;12.080;2022-12-15T10:37:33;-0.90;99.90
39079;DHT22;24829;49.208;12.080;2022-12-15T10:39:59;-0.80;99.90
39079;DHT22;24829;49.208;12.080;2022-12-15T10:42:25;-0.80;99.90
39079;DHT22;24829;49.208;12.080;2022-12-15T10:44:56;-0.80;99.90
39079;DHT22;24829;49.208;12.080;2022-12-15T10:47:26;-0.80;99.90
39079;DHT22;24829;49.208;12.080;2022-12-15T10:49:53;-0.70;99.90
39079;DHT22;24829;49.208;12.080;2022-12-15T10:52:31;-0.70;99.90
39079;DHT22;24829;49.208;12.080;2022-12-15T10:54:58;-0.60;99.90
39079;DHT22;24829;49.208;12.080;2022-12-15T10:57:26;-0.50;99.90
39079;DHT22;24829;49.208;12.080;2022-12-15T10:59:54;-0.50;99.90
39079;DHT22;24829;49.208;12.080;2022-12-15T11:05:03;-0.30;99.90
39079;DHT22;24829;49.208;12.080;2022-12-15T11:10:00;-0.30;99.90
39079;DHT22;24829;49.208;12.080;2022-12-15T11:12:32;-0.40;99.90
39079;DHT22;24829;49.208;12.080;2022-12-15T11:18:37;-0.50;99.90
39079;DHT22;24829;49.208;12.080;2022-12-15T11:20:40;-0.40;99.90
39079;DHT22;24829;49.208;12.080;2022-12-15T11:29:12;-0.40;99.90
39079;DHT22;24829;49.208;12.080;2022-12-15T11:31:42;-0.40;99.90
39079;DHT22;24829;49.208;12.080;2022-12-15T11:34:17;-0.40;99.90
39079;DHT22;24829;49.208;12.080;2022-12-15T11:37:04;-0.40;99.90
39079;DHT22;24829;49.208;12.080;2022-12-15T11:45:28;-0.40;99.90
39079;DHT22;24829;49.208;12.080;2022-12-15T11:54:14;-0.60;99.90
39079;DHT22;24829;49.208;12.080;2022-12-15T11:56:51;-0.60;99.90
39079;DHT22;24829;49.208;12.080;2022-12-15T11:59:47;-0.50;99.90
39079;DHT22;24829;49.208;12.080;2022-12-15T12:02:39;-0.60;99.90
39079;DHT22;24829;49.208;12.080;2022-12-15T12:05:35;-0.50;99.90
39079;DHT22;24829;49.208;12.080;2022-12-15T12:08:20;-0.60;99.90
39079;DHT22;24829;49.208;12.080;2022-12-15T12:19:15;-0.40;99.90
39079;DHT22;24829;49.208;12.080;2022-12-15T12:21:45;-0.40;99.90
39079;DHT22;24829;49.208;12.080;2022-12-15T12:24:43;-0.40;99.90
39079;DHT22;24829;49.208;12.080;2022-12-15T12:27:12;-0.50;99.90
39079;DHT22;24829;49.208;12.080;2022-12-15T12:29:45;-0.40;99.90
39079;DHT22;24829;49.208;12.080;2022-12-15T12:32:19;-0.40;99.90
39079;DHT22;24829;49.208;12.080;2022-12-15T12:38:04;-0.40;99.90
39079;DHT22;24829;49.208;12.080;2022-12-15T12:40:54;-0.40;99.90
39079;DHT22;24829;49.208;12.080;2022-12-15T12:43:32;-0.40;99.90
39079;DHT22;24829;49.208;12.080;2022-12-15T12:46:15;-0.40;99.90
39079;DHT22;24829;49.208;12.080;2022-12-15T12:51:35;-0.30;99.90
39079;DHT22;24829;49.208;12.080;2022-12-15T12:56:53;-0.20;99.90
39079;DHT22;24829;49.208;12.080;2022-12-15T13:02:10;-0.10;99.90
39079;DHT22;24829;49.208;12.080;2022-12-15T13:04:42;-0.10;99.90
39079;DHT22;24829;49.208;12.080;2022-12-15T13:07:36;-0.10;99.90
39079;DHT22;24829;49.208;12.080;2022-12-15T13:12:37;-0.20;99.90
39079;DHT22;24829;49.208;12.080;2022-12-15T13:18:14;-0.20;99.90
39079;DHT22;24829;49.208;12.080;2022-12-15T13:20:41;-0.20;99.90
39079;DHT22;24829;49.208;12.080;2022-12-15T13:31:23;-0.20;99.90
39079;DHT22;24829;49.208;12.080;2022-12-15T13:39:03;-0.50;99.90
39079;DHT22;24829;49.208;12.080;2022-12-15T13:41:29;-0.50;99.90
39079;DHT22;24829;49.208;12.080;2022-12-15T13:43:57;-0.50;99.90
39079;DHT22;24829;49.208;12.080;2022-12-15T13:46:27;-0.60;99.90
39079;DHT22;24829;49.208;12.080;2022-12-15T13:49:03;-0.60;99.90
39079;DHT22;24829;49.208;12.080;2022-12-15T13:51:37;-0.60;99.90
39079;DHT22;24829;49.208;12.080;2022-12-15T13:54:20;-0.60;99.90
39079;DHT22;24829;49.208;12.080;2022-12-15T13:56:52;-0.60;99.90
39079;DHT22;24829;49.208;12.080;2022-12-15T13:59:38;-0.70;99.90
39079;DHT22;24829;49.208;12.080;2022-12-15T14:02:26;-0.70;99.90
39079;DHT22;24829;49.208;12.080;2022-12-15T14:07:36;-0.70;99.90
39079;DHT22;24829;49.208;12.080;2022-12-15T14:10:05;-0.70;99.90
39079;DHT22;24829;49.208;12.080;2022-12-15T14:12:32;-0.80;99.90
39079;DHT22;24829;49.208;12.080;2022-12-15T14:14:57;-0.80;99.90
39079;DHT22;24829;49.208;12.080;2022-12-15T14:17:23;-0.80;99.90
39079;DHT22;24829;49.208;12.080;2022-12-15T14:19:49;-0.80;99.90
39079;DHT22;24829;49.208;12.080;2022-12-15T14:22:27;-0.70;99.90
39079;DHT22;24829;49.208;12.080;2022-12-15T14:25:02;-0.70;99.90
39079;DHT22;24829;49.208;12.080;2022-12-15T14:27:30;-0.80;99.90
39079;DHT22;24829;49.208;12.080;2022-12-15T14:30:25;-0.80;99.90
39079;DHT22;24829;49.208;12.080;2022-12-15T14:33:04;-0.90;99.90
39079;DHT22;24829;49.208;12.080;2022-12-15T14:38:01;-1.00;99.90
39079;DHT22;24829;49.208;12.080;2022-12-15T14:40:28;-1.00;99.90
39079;DHT22;24829;49.208;12.080;2022-12-15T14:42:55;-1.00;99.90
39079;DHT22;24829;49.208;12.080;2022-12-15T14:45:25;-1.10;99.90
39079;DHT22;24829;49.208;12.080;2022-12-15T14:47:57;-1.10;99.90
39079;DHT22;24829;49.208;12.080;2022-12-15T14:50:24;-1.20;99.90
39079;DHT22;24829;49.208;12.080;2022-12-15T14:53:16;-1.20;99.90
39079;DHT22;24829;49.208;12.080;2022-12-15T14:55:42;-1.20;99.90
39079;DHT22;24829;49.208;12.080;2022-12-15T14:58:38;-1.20;99.90
39079;DHT22;24829;49.208;12.080;2022-12-15T15:01:24;-1.20;99.90
39079;DHT22;24829;49.208;12.080;2022-12-15T15:04:02;-1.20;99.90
39079;DHT22;24829;49.208;12.080;2022-12-15T15:06:38;-1.30;99.90
39079;DHT22;24829;49.208;12.080;2022-12-15T15:09:31;-1.40;99.90
39079;DHT22;24829;49.208;12.080;2022-12-15T15:12:25;-1.40;99.90
39079;DHT22;24829;49.208;12.080;2022-12-15T15:15:02;-1.50;99.90
39079;DHT22;24829;49.208;12.080;2022-12-15T15:17:44;-1.50;99.90
39079;DHT22;24829;49.208;12.080;2022-12-15T15:20:21;-1.50;99.90
39079;DHT22;24829;49.208;12.080;2022-12-15T15:28:26;-1.70;99.90
39079;DHT22;24829;49.208;12.080;2022-12-15T15:30:59;-1.80;99.90
39079;DHT22;24829;49.208;12.080;2022-12-15T15:33:30;-1.90;99.90
39079;DHT22;24829;49.208;12.080;2022-12-15T15:35:58;-1.80;99.90
39079;DHT22;24829;49.208;12.080;2022-12-15T15:38:31;-1.80;99.90
39079;DHT22;24829;49.208;12.080;2022-12-15T15:40:59;-1.90;99.90
39079;DHT22;24829;49.208;12.080;2022-12-15T15:43:26;-1.90;99.90
39079;DHT22;24829;49.208;12.080;2022-12-15T15:46:00;-1.80;99.90
39079;DHT22;24829;49.208;12.080;2022-12-15T15:48:33;-1.80;99.90
39079;DHT22;24829;49.208;12.080;2022-12-15T15:51:00;-1.80;99.90
39079;DHT22;24829;49.208;12.080;2022-12-15T15:53:29;-1.90;99.90
39079;DHT22;24829;49.208;12.080;2022-12-15T15:55:56;-1.90;99.90
39079;DHT22;24829;49.208;12.080;2022-12-15T15:58:22;-1.90;99.90
39079;DHT22;24829;49.208;12.080;2022-12-15T16:00:47;-1.90;99.90
39079;DHT22;24829;49.208;12.080;2022-12-15T16:03:13;-1.90;99.90
39079;DHT22;24829;49.208;12.080;2022-12-15T16:05:39;-1.90;99.90
39079;DHT22;24829;49.208;12.080;2022-12-15T16:08:06;-1.80;99.90
39079;DHT22;24829;49.208;12.080;2022-12-15T16:10:32;-1.80;99.90
39079;DHT22;24829;49.208;12.080;2022-12-15T16:12:59;-1.80;99.90
39079;DHT22;24829;49.208;12.080;2022-12-15T16:15:28;-1.80;99.90
39079;DHT22;24829;49.208;12.080;2022-12-15T16:17:55;-1.70;99.90
39079;DHT22;24829;49.208;12.080;2022-12-15T16:20:25;-1.70;99.90
39079;DHT22;24829;49.208;12.080;2022-12-15T16:23:25;-1.70;99.90
39079;DHT22;24829;49.208;12.080;2022-12-15T16:25:52;-1.80;99.90
39079;DHT22;24829;49.208;12.080;2022-12-15T16:28:20;-1.80;99.90
39079;DHT22;24829;49.208;12.080;2022-12-15T16:30:47;-1.80;99.90
39079;DHT22;24829;49.208;12.080;2022-12-15T16:33:13;-1.80;99.90
39079;DHT22;24829;49.208;12.080;2022-12-15T16:35:40;-2.00;99.90
39079;DHT22;24829;49.208;12.080;2022-12-15T16:38:15;-2.00;99.90
39079;DHT22;24829;49.208;12.080;2022-12-15T16:40:42;-2.00;99.90
39079;DHT22;24829;49.208;12.080;2022-12-15T16:43:14;-2.00;99.90
39079;DHT22;24829;49.208;12.080;2022-12-15T16:45:44;-2.00;99.90
39079;DHT22;24829;49.208;12.080;2022-12-15T16:48:12;-2.20;99.90
39079;DHT22;24829;49.208;12.080;2022-12-15T16:50:41;-2.20;99.90
39079;DHT22;24829;49.208;12.080;2022-12-15T16:53:15;-2.30;99.90
39079;DHT22;24829;49.208;12.080;2022-12-15T16:55:42;-2.40;99.90
39079;DHT22;24829;49.208;12.080;2022-12-15T16:58:11;-2.40;99.90
39079;DHT22;24829;49.208;12.080;2022-12-15T17:00:39;-2.50;99.90
39079;DHT22;24829;49.208;12.080;2022-12-15T17:03:05;-2.50;99.90
39079;DHT22;24829;49.208;12.080;2022-12-15T17:05:33;-2.50;99.90
39079;DHT22;24829;49.208;12.080;2022-12-15T17:08:02;-2.40;99.90
39079;DHT22;24829;49.208;12.080;2022-12-15T17:10:29;-2.30;99.90
39079;DHT22;24829;49.208;12.080;2022-12-15T17:13:20;-2.30;99.90
39079;DHT22;24829;49.208;12.080;2022-12-15T17:15:46;-2.30;99.90
39079;DHT22;24829;49.208;12.080;2022-12-15T17:18:12;-2.20;99.90
39079;DHT22;24829;49.208;12.080;2022-12-15T17:20:39;-2.20;99.90
39079;DHT22;24829;49.208;12.080;2022-12-15T17:23:09;-2.30;99.90
39079;DHT22;24829;49.208;12.080;2022-12-15T17:25:42;-2.20;99.90
39079;DHT22;24829;49.208;12.080;2022-12-15T17:28:29;-2.20;99.90
39079;DHT22;24829;49.208;12.080;2022-12-15T17:30:55;-2.30;99.90
39079;DHT22;24829;49.208;12.080;2022-12-15T17:33:32;-2.20;99.90
39079;DHT22;24829;49.208;12.080;2022-12-15T17:35:59;-2.20;99.90
39079;DHT22;24829;49.208;12.080;2022-12-15T17:38:26;-2.30;99.90
39079;DHT22;24829;49.208;12.080;2022-12-15T17:40:52;-2.20;99.90
39079;DHT22;24829;49.208;12.080;2022-12-15T17:43:24;-2.20;99.90